sensor_id;sensor_type;location;lat;lon;timestamp;pressure;altitude;pressure_sealevel;temperature
64458;BMP280;58438;51.200;7.252;2023-12-20T00:02:02;97039.44;;;6.37
64458;BMP280;58438;51.200;7.252;2023-12-20T00:04:49;97038.50;;;6.40
64458;BMP280;58438;51.200;7.252;2023-12-20T00:07:36;97032.44;;;6.30
64458;BMP280;58438;51.200;7.252;2023-12-20T00:10:24;97050.59;;;6.30
64458;BMP280;58438;51.200;7.252;2023-12-20T00:13:11;97045.63;;;6.28
64458;BMP280;58438;51.200;7.252;2023-12-20T00:16:00;97051.84;;;6.20
64458;BMP280;58438;51.200;7.252;2023-12-20T00:18:47;97054.72;;;6.16
64458;BMP280;58438;51.200;7.252;2023-12-20T00:21:34;97050.97;;;6.14
64458;BMP280;58438;51.200;7.252;2023-12-20T00:24:24;97044.13;;;6.04
64458;BMP280;58438;51.200;7.252;2023-12-20T00:27:11;97045.16;;;6.06
64458;BMP280;58438;51.200;7.252;2023-12-20T00:29:58;97037.66;;;6.01
64458;BMP280;58438;51.200;7.252;2023-12-20T00:32:47;97045.94;;;5.98
64458;BMP280;58438;51.200;7.252;2023-12-20T00:35:34;97045.06;;;5.92
64458;BMP280;58438;51.200;7.252;2023-12-20T00:38:21;97036.97;;;5.92
64458;BMP280;58438;51.200;7.252;2023-12-20T00:41:08;97020.75;;;5.92
64458;BMP280;58438;51.200;7.252;2023-12-20T00:43:55;97020.19;;;5.88
64458;BMP280;58438;51.200;7.252;2023-12-20T00:46:42;97021.34;;;5.87
64458;BMP280;58438;51.200;7.252;2023-12-20T00:49:30;97031.88;;;5.85
64458;BMP280;58438;51.200;7.252;2023-12-20T00:52:17;97040.09;;;5.90
64458;BMP280;58438;51.200;7.252;2023-12-20T00:55:05;97040.41;;;5.83
64458;BMP280;58438;51.200;7.252;2023-12-20T00:57:52;97045.38;;;5.85
64458;BMP280;58438;51.200;7.252;2023-12-20T01:00:39;97047.16;;;5.79
64458;BMP280;58438;51.200;7.252;2023-12-20T01:03:29;97046.28;;;5.82
64458;BMP280;58438;51.200;7.252;2023-12-20T01:06:21;97045.69;;;5.78
64458;BMP280;58438;51.200;7.252;2023-12-20T01:09:10;97047.00;;;5.82
64458;BMP280;58438;51.200;7.252;2023-12-20T01:12:00;97050.63;;;5.79
64458;BMP280;58438;51.200;7.252;2023-12-20T01:14:50;97048.56;;;5.74
64458;BMP280;58438;51.200;7.252;2023-12-20T01:17:40;97048.25;;;5.72
64458;BMP280;58438;51.200;7.252;2023-12-20T01:20:30;97051.13;;;5.69
64458;BMP280;58438;51.200;7.252;2023-12-20T01:23:21;97043.78;;;5.69
64458;BMP280;58438;51.200;7.252;2023-12-20T01:26:11;97033.88;;;5.66
64458;BMP280;58438;51.200;7.252;2023-12-20T01:29:00;97030.75;;;5.59
64458;BMP280;58438;51.200;7.252;2023-12-20T01:31:50;97035.25;;;5.62
64458;BMP280;58438;51.200;7.252;2023-12-20T01:34:38;97022.03;;;5.64
64458;BMP280;58438;51.200;7.252;2023-12-20T01:37:29;97019.63;;;5.66
64458;BMP280;58438;51.200;7.252;2023-12-20T01:40:19;97019.16;;;5.67
64458;BMP280;58438;51.200;7.252;2023-12-20T01:43:09;97013.22;;;5.63
64458;BMP280;58438;51.200;7.252;2023-12-20T01:46:00;97027.44;;;5.64
64458;BMP280;58438;51.200;7.252;2023-12-20T01:48:50;97029.56;;;5.60
64458;BMP280;58438;51.200;7.252;2023-12-20T01:51:41;97036.16;;;5.59
64458;BMP280;58438;51.200;7.252;2023-12-20T01:54:31;97044.69;;;5.57
64458;BMP280;58438;51.200;7.252;2023-12-20T01:57:23;97030.91;;;5.55
64458;BMP280;58438;51.200;7.252;2023-12-20T02:00:13;97029.56;;;5.51
64458;BMP280;58438;51.200;7.252;2023-12-20T02:03:04;97035.88;;;5.48
64458;BMP280;58438;51.200;7.252;2023-12-20T02:05:53;97043.97;;;5.48
64458;BMP280;58438;51.200;7.252;2023-12-20T02:08:44;97041.28;;;5.48
64458;BMP280;58438;51.200;7.252;2023-12-20T02:11:33;97038.28;;;5.46
64458;BMP280;58438;51.200;7.252;2023-12-20T02:14:25;97034.09;;;5.45
64458;BMP280;58438;51.200;7.252;2023-12-20T02:17:15;97035.75;;;5.42
64458;BMP280;58438;51.200;7.252;2023-12-20T02:20:05;97045.03;;;5.41
64458;BMP280;58438;51.200;7.252;2023-12-20T02:22:56;97041.56;;;5.41
64458;BMP280;58438;51.200;7.252;2023-12-20T02:25:45;97032.88;;;5.37
64458;BMP280;58438;51.200;7.252;2023-12-20T02:28:35;97038.72;;;5.35
64458;BMP280;58438;51.200;7.252;2023-12-20T02:31:25;97032.47;;;5.29
64458;BMP280;58438;51.200;7.252;2023-12-20T02:34:14;97045.06;;;5.32
64458;BMP280;58438;51.200;7.252;2023-12-20T02:37:04;97058.41;;;5.27
64458;BMP280;58438;51.200;7.252;2023-12-20T02:39:55;97063.78;;;5.18
64458;BMP280;58438;51.200;7.252;2023-12-20T02:42:45;97052.41;;;5.23
64458;BMP280;58438;51.200;7.252;2023-12-20T02:45:35;97070.69;;;5.19
64458;BMP280;58438;51.200;7.252;2023-12-20T02:48:25;97053.91;;;5.15
64458;BMP280;58438;51.200;7.252;2023-12-20T02:51:15;97062.00;;;5.06
64458;BMP280;58438;51.200;7.252;2023-12-20T02:54:05;97045.81;;;5.15
64458;BMP280;58438;51.200;7.252;2023-12-20T02:56:54;97061.25;;;5.14
64458;BMP280;58438;51.200;7.252;2023-12-20T02:59:41;97060.03;;;5.06
64458;BMP280;58438;51.200;7.252;2023-12-20T03:02:28;97065.44;;;5.06
64458;BMP280;58438;51.200;7.252;2023-12-20T03:05:15;97064.69;;;5.06
64458;BMP280;58438;51.200;7.252;2023-12-20T03:08:03;97070.53;;;5.13
64458;BMP280;58438;51.200;7.252;2023-12-20T03:10:50;97065.16;;;5.13
64458;BMP280;58438;51.200;7.252;2023-12-20T03:13:38;97055.41;;;5.07
64458;BMP280;58438;51.200;7.252;2023-12-20T03:16:26;97056.75;;;5.11
64458;BMP280;58438;51.200;7.252;2023-12-20T03:19:13;97053.59;;;5.04
64458;BMP280;58438;51.200;7.252;2023-12-20T03:22:00;97050.31;;;5.00
64458;BMP280;58438;51.200;7.252;2023-12-20T03:24:47;97045.50;;;4.95
64458;BMP280;58438;51.200;7.252;2023-12-20T03:27:36;97048.97;;;4.96
64458;BMP280;58438;51.200;7.252;2023-12-20T03:30:25;97058.41;;;4.91
64458;BMP280;58438;51.200;7.252;2023-12-20T03:33:12;97052.56;;;4.93
64458;BMP280;58438;51.200;7.252;2023-12-20T03:36:00;97054.50;;;4.92
64458;BMP280;58438;51.200;7.252;2023-12-20T03:38:47;97059.91;;;4.92
64458;BMP280;58438;51.200;7.252;2023-12-20T03:41:34;97056.13;;;4.90
64458;BMP280;58438;51.200;7.252;2023-12-20T03:44:21;97051.66;;;4.87
64458;BMP280;58438;51.200;7.252;2023-12-20T03:47:10;97049.56;;;4.82
64458;BMP280;58438;51.200;7.252;2023-12-20T03:49:57;97050.13;;;4.77
64458;BMP280;58438;51.200;7.252;2023-12-20T03:52:44;97046.25;;;4.78
64458;BMP280;58438;51.200;7.252;2023-12-20T03:55:31;97060.47;;;4.78
64458;BMP280;58438;51.200;7.252;2023-12-20T03:58:18;97068.56;;;4.78
64458;BMP280;58438;51.200;7.252;2023-12-20T04:01:08;97065.28;;;4.74
64458;BMP280;58438;51.200;7.252;2023-12-20T04:03:57;97066.78;;;4.75
64458;BMP280;58438;51.200;7.252;2023-12-20T04:06:44;97065.28;;;4.74
64458;BMP280;58438;51.200;7.252;2023-12-20T04:09:31;97060.75;;;4.71
64458;BMP280;58438;51.200;7.252;2023-12-20T04:12:18;97065.28;;;4.74
64458;BMP280;58438;51.200;7.252;2023-12-20T04:15:06;97061.81;;;4.74
64458;BMP280;58438;51.200;7.252;2023-12-20T04:17:55;97061.06;;;4.73
64458;BMP280;58438;51.200;7.252;2023-12-20T04:20:43;97054.34;;;4.78
64458;BMP280;58438;51.200;7.252;2023-12-20T04:23:31;97051.47;;;4.72
64458;BMP280;58438;51.200;7.252;2023-12-20T04:26:18;97049.09;;;4.74
64458;BMP280;58438;51.200;7.252;2023-12-20T04:29:05;97057.31;;;4.71
64458;BMP280;58438;51.200;7.252;2023-12-20T04:31:52;97042.22;;;4.73
64458;BMP280;58438;51.200;7.252;2023-12-20T04:34:39;97049.66;;;4.69
64458;BMP280;58438;51.200;7.252;2023-12-20T04:37:28;97057.75;;;4.69
64458;BMP280;58438;51.200;7.252;2023-12-20T04:40:15;97061.66;;;4.68
64458;BMP280;58438;51.200;7.252;2023-12-20T04:43:02;97072.44;;;4.68
64458;BMP280;58438;51.200;7.252;2023-12-20T04:45:49;97077.06;;;4.68
64458;BMP280;58438;51.200;7.252;2023-12-20T04:48:36;97076.03;;;4.65
64458;BMP280;58438;51.200;7.252;2023-12-20T04:51:24;97071.84;;;4.64
64458;BMP280;58438;51.200;7.252;2023-12-20T04:54:13;97078.13;;;4.61
64458;BMP280;58438;51.200;7.252;2023-12-20T04:57:00;97071.97;;;4.61
64458;BMP280;58438;51.200;7.252;2023-12-20T04:59:47;97071.25;;;4.60
64458;BMP280;58438;51.200;7.252;2023-12-20T05:02:34;97069.41;;;4.57
64458;BMP280;58438;51.200;7.252;2023-12-20T05:05:22;97075.00;;;4.63
64458;BMP280;58438;51.200;7.252;2023-12-20T05:08:09;97062.25;;;4.63
64458;BMP280;58438;51.200;7.252;2023-12-20T05:10:58;97070.34;;;4.63
64458;BMP280;58438;51.200;7.252;2023-12-20T05:13:45;97063.16;;;4.60
64458;BMP280;58438;51.200;7.252;2023-12-20T05:16:35;97063.41;;;4.53
64458;BMP280;58438;51.200;7.252;2023-12-20T05:19:22;97074.94;;;4.54
64458;BMP280;58438;51.200;7.252;2023-12-20T05:22:09;97071.50;;;4.53
64458;BMP280;58438;51.200;7.252;2023-12-20T05:24:56;97077.06;;;4.59
64458;BMP280;58438;51.200;7.252;2023-12-20T05:27:45;97076.91;;;4.53
64458;BMP280;58438;51.200;7.252;2023-12-20T05:30:33;97081.38;;;4.56
64458;BMP280;58438;51.200;7.252;2023-12-20T05:33:20;97076.75;;;4.57
64458;BMP280;58438;51.200;7.252;2023-12-20T05:36:07;97085.72;;;4.54
64458;BMP280;58438;51.200;7.252;2023-12-20T05:38:57;97079.72;;;4.50
64458;BMP280;58438;51.200;7.252;2023-12-20T05:41:44;97087.53;;;4.48
64458;BMP280;58438;51.200;7.252;2023-12-20T05:44:33;97083.91;;;4.51
64458;BMP280;58438;51.200;7.252;2023-12-20T05:47:20;97070.13;;;4.49
64458;BMP280;58438;51.200;7.252;2023-12-20T05:50:07;97081.09;;;4.45
64458;BMP280;58438;51.200;7.252;2023-12-20T05:55:41;97040.50;;;4.49
64458;BMP280;58438;51.200;7.252;2023-12-20T05:58:28;97059.53;;;4.45
64458;BMP280;58438;51.200;7.252;2023-12-20T06:01:17;97063.72;;;4.46
64458;BMP280;58438;51.200;7.252;2023-12-20T06:04:04;97061.31;;;4.48
64458;BMP280;58438;51.200;7.252;2023-12-20T06:06:52;97050.53;;;4.48
64458;BMP280;58438;51.200;7.252;2023-12-20T06:09:39;97068.34;;;4.46
64458;BMP280;58438;51.200;7.252;2023-12-20T06:12:26;97066.84;;;4.45
64458;BMP280;58438;51.200;7.252;2023-12-20T06:15:14;97060.25;;;4.46
64458;BMP280;58438;51.200;7.252;2023-12-20T06:18:03;97061.03;;;4.46
64458;BMP280;58438;51.200;7.252;2023-12-20T06:20:50;97068.19;;;4.40
64458;BMP280;58438;51.200;7.252;2023-12-20T06:23:37;97069.25;;;4.43
64458;BMP280;58438;51.200;7.252;2023-12-20T06:26:24;97071.03;;;4.46
64458;BMP280;58438;51.200;7.252;2023-12-20T06:29:12;97076.00;;;4.47
64458;BMP280;58438;51.200;7.252;2023-12-20T06:31:59;97076.13;;;4.44
64458;BMP280;58438;51.200;7.252;2023-12-20T06:34:47;97061.16;;;4.43
64458;BMP280;58438;51.200;7.252;2023-12-20T06:37:34;97065.06;;;4.42
64458;BMP280;58438;51.200;7.252;2023-12-20T06:40:22;97062.78;;;4.40
64458;BMP280;58438;51.200;7.252;2023-12-20T06:43:09;97062.06;;;4.40
64458;BMP280;58438;51.200;7.252;2023-12-20T06:46:01;97068.63;;;4.39
64458;BMP280;58438;51.200;7.252;2023-12-20T06:48:49;97069.69;;;4.41
64458;BMP280;58438;51.200;7.252;2023-12-20T06:51:37;97063.09;;;4.42
64458;BMP280;58438;51.200;7.252;2023-12-20T06:54:25;97063.41;;;4.44
64458;BMP280;58438;51.200;7.252;2023-12-20T06:57:12;97071.19;;;4.42
64458;BMP280;58438;51.200;7.252;2023-12-20T07:00:00;97082.28;;;4.44
64458;BMP280;58438;51.200;7.252;2023-12-20T07:02:47;97084.34;;;4.40
64458;BMP280;58438;51.200;7.252;2023-12-20T07:05:34;97067.44;;;4.40
64458;BMP280;58438;51.200;7.252;2023-12-20T07:08:23;97077.47;;;4.39
64458;BMP280;58438;51.200;7.252;2023-12-20T07:11:10;97080.16;;;4.39
64458;BMP280;58438;51.200;7.252;2023-12-20T07:13:57;97074.19;;;4.44
64458;BMP280;58438;51.200;7.252;2023-12-20T07:16:44;97076.56;;;4.42
64458;BMP280;58438;51.200;7.252;2023-12-20T07:19:31;97085.84;;;4.41
64458;BMP280;58438;51.200;7.252;2023-12-20T07:22:18;97081.66;;;4.40
64458;BMP280;58438;51.200;7.252;2023-12-20T07:25:07;97077.75;;;4.41
64458;BMP280;58438;51.200;7.252;2023-12-20T07:27:55;97078.09;;;4.43
64458;BMP280;58438;51.200;7.252;2023-12-20T07:30:42;97075.06;;;4.41
64458;BMP280;58438;51.200;7.252;2023-12-20T07:33:29;97069.53;;;4.45
64458;BMP280;58438;51.200;7.252;2023-12-20T07:36:23;97078.81;;;4.44
64458;BMP280;58438;51.200;7.252;2023-12-20T07:39:10;97078.69;;;4.47
64458;BMP280;58438;51.200;7.252;2023-12-20T07:41:59;97070.44;;;4.42
64458;BMP280;58438;51.200;7.252;2023-12-20T07:44:46;97083.00;;;4.45
64458;BMP280;58438;51.200;7.252;2023-12-20T07:47:33;97081.81;;;4.46
64458;BMP280;58438;51.200;7.252;2023-12-20T07:50:20;97075.69;;;4.45
64458;BMP280;58438;51.200;7.252;2023-12-20T07:53:07;97092.44;;;4.49
64458;BMP280;58438;51.200;7.252;2023-12-20T07:55:54;97093.38;;;4.46
64458;BMP280;58438;51.200;7.252;2023-12-20T07:58:43;97086.91;;;4.44
64458;BMP280;58438;51.200;7.252;2023-12-20T08:01:36;97077.31;;;4.43
64458;BMP280;58438;51.200;7.252;2023-12-20T08:04:23;97078.69;;;4.47
64458;BMP280;58438;51.200;7.252;2023-12-20T08:07:11;97081.09;;;4.45
64458;BMP280;58438;51.200;7.252;2023-12-20T08:09:58;97084.97;;;4.44
64458;BMP280;58438;51.200;7.252;2023-12-20T08:12:45;97083.34;;;4.47
64458;BMP280;58438;51.200;7.252;2023-12-20T08:15:33;97078.97;;;4.49
64458;BMP280;58438;51.200;7.252;2023-12-20T08:18:20;97084.69;;;4.51
64458;BMP280;58438;51.200;7.252;2023-12-20T08:21:07;97086.19;;;4.52
64458;BMP280;58438;51.200;7.252;2023-12-20T08:23:55;97077.78;;;4.50
64458;BMP280;58438;51.200;7.252;2023-12-20T08:26:42;97073.56;;;4.49
64458;BMP280;58438;51.200;7.252;2023-12-20T08:29:29;97084.50;;;4.46
64458;BMP280;58438;51.200;7.252;2023-12-20T08:32:18;97090.66;;;4.46
64458;BMP280;58438;51.200;7.252;2023-12-20T08:35:05;97087.03;;;4.49
64458;BMP280;58438;51.200;7.252;2023-12-20T08:37:52;97083.00;;;4.45
64458;BMP280;58438;51.200;7.252;2023-12-20T08:40:39;97081.66;;;4.49
64458;BMP280;58438;51.200;7.252;2023-12-20T08:43:27;97094.13;;;4.47
64458;BMP280;58438;51.200;7.252;2023-12-20T08:46:14;97098.75;;;4.46
64458;BMP280;58438;51.200;7.252;2023-12-20T08:49:03;97089.31;;;4.51
64458;BMP280;58438;51.200;7.252;2023-12-20T08:51:51;97101.44;;;4.46
64458;BMP280;58438;51.200;7.252;2023-12-20T08:54:38;97098.59;;;4.50
64458;BMP280;58438;51.200;7.252;2023-12-20T08:57:25;97103.53;;;4.51
64458;BMP280;58438;51.200;7.252;2023-12-20T09:00:13;97096.97;;;4.52
64458;BMP280;58438;51.200;7.252;2023-12-20T09:03:00;97097.69;;;4.53
64458;BMP280;58438;51.200;7.252;2023-12-20T09:05:49;97102.03;;;4.50
64458;BMP280;58438;51.200;7.252;2023-12-20T09:08:36;97084.06;;;4.47
64458;BMP280;58438;51.200;7.252;2023-12-20T09:11:23;97091.69;;;4.49
64458;BMP280;58438;51.200;7.252;2023-12-20T09:14:10;97107.44;;;4.50
64458;BMP280;58438;51.200;7.252;2023-12-20T09:16:57;97098.75;;;4.46
64458;BMP280;58438;51.200;7.252;2023-12-20T09:19:47;97090.97;;;4.48
64458;BMP280;58438;51.200;7.252;2023-12-20T09:22:35;97093.38;;;4.46
64458;BMP280;58438;51.200;7.252;2023-12-20T09:25:24;97083.34;;;4.47
64458;BMP280;58438;51.200;7.252;2023-12-20T09:28:12;97091.88;;;4.45
64458;BMP280;58438;51.200;7.252;2023-12-20T09:30:59;97088.88;;;4.43
64458;BMP280;58438;51.200;7.252;2023-12-20T09:33:46;97078.69;;;4.47
64458;BMP280;58438;51.200;7.252;2023-12-20T09:36:33;97086.78;;;4.47
64458;BMP280;58438;51.200;7.252;2023-12-20T09:39:23;97085.72;;;4.45
64458;BMP280;58438;51.200;7.252;2023-12-20T09:42:11;97087.97;;;4.46
64458;BMP280;58438;51.200;7.252;2023-12-20T09:44:58;97091.28;;;4.50
64458;BMP280;58438;51.200;7.252;2023-12-20T09:47:48;97080.91;;;4.49
64458;BMP280;58438;51.200;7.252;2023-12-20T09:50:35;97075.53;;;4.49
64458;BMP280;58438;51.200;7.252;2023-12-20T09:53:23;97077.78;;;4.50
64458;BMP280;58438;51.200;7.252;2023-12-20T09:56:16;97083.47;;;4.52
64458;BMP280;58438;51.200;7.252;2023-12-20T09:59:03;97077.94;;;4.47
64458;BMP280;58438;51.200;7.252;2023-12-20T10:01:51;97071.81;;;4.46
64458;BMP280;58438;51.200;7.252;2023-12-20T10:04:46;97078.22;;;4.49
64458;BMP280;58438;51.200;7.252;2023-12-20T10:07:33;97084.06;;;4.47
64458;BMP280;58438;51.200;7.252;2023-12-20T10:10:21;97074.78;;;4.48
64458;BMP280;58438;51.200;7.252;2023-12-20T10:13:17;97072.41;;;4.50
64458;BMP280;58438;51.200;7.252;2023-12-20T10:16:05;97082.28;;;4.53
64458;BMP280;58438;51.200;7.252;2023-12-20T10:18:53;97083.03;;;4.54
64458;BMP280;58438;51.200;7.252;2023-12-20T10:21:41;97087.69;;;4.53
64458;BMP280;58438;51.200;7.252;2023-12-20T10:24:29;97063.41;;;4.53
64458;BMP280;58438;51.200;7.252;2023-12-20T10:27:16;97070.59;;;4.56
64458;BMP280;58438;51.200;7.252;2023-12-20T10:30:07;97069.13;;;4.55
64458;BMP280;58438;51.200;7.252;2023-12-20T10:32:54;97061.47;;;4.54
64458;BMP280;58438;51.200;7.252;2023-12-20T10:35:41;97070.31;;;4.54
64458;BMP280;58438;51.200;7.252;2023-12-20T10:38:31;97065.34;;;4.53
64458;BMP280;58438;51.200;7.252;2023-12-20T10:41:18;97063.41;;;4.53
64458;BMP280;58438;51.200;7.252;2023-12-20T10:44:06;97059.22;;;4.52
64458;BMP280;58438;51.200;7.252;2023-12-20T10:46:55;97040.66;;;4.54
64458;BMP280;58438;51.200;7.252;2023-12-20T10:49:44;97044.41;;;4.48
64458;BMP280;58438;51.200;7.252;2023-12-20T10:52:32;97039.78;;;4.48
64458;BMP280;58438;51.200;7.252;2023-12-20T10:55:20;97046.81;;;4.55
64458;BMP280;58438;51.200;7.252;2023-12-20T10:58:08;97039.91;;;4.54
64458;BMP280;58438;51.200;7.252;2023-12-20T11:00:57;97047.56;;;4.55
64458;BMP280;58438;51.200;7.252;2023-12-20T11:03:49;97036.47;;;4.53
64458;BMP280;58438;51.200;7.252;2023-12-20T11:06:39;97042.16;;;4.55
64458;BMP280;58438;51.200;7.252;2023-12-20T11:09:31;97032.00;;;4.59
64458;BMP280;58438;51.200;7.252;2023-12-20T11:12:24;97042.16;;;4.55
64458;BMP280;58438;51.200;7.252;2023-12-20T11:15:13;97032.28;;;4.52
64458;BMP280;58438;51.200;7.252;2023-12-20T11:18:01;97042.16;;;4.55
64458;BMP280;58438;51.200;7.252;2023-12-20T11:20:50;97046.81;;;4.55
64458;BMP280;58438;51.200;7.252;2023-12-20T11:23:37;97056.25;;;4.50
64458;BMP280;58438;51.200;7.252;2023-12-20T11:26:26;97045.75;;;4.52
64458;BMP280;58438;51.200;7.252;2023-12-20T11:29:30;97042.16;;;4.55
64458;BMP280;58438;51.200;7.252;2023-12-20T11:32:27;97042.78;;;4.59
64458;BMP280;58438;51.200;7.252;2023-12-20T11:35:18;97039.03;;;4.57
64458;BMP280;58438;51.200;7.252;2023-12-20T11:38:09;97029.59;;;4.61
64458;BMP280;58438;51.200;7.252;2023-12-20T11:40:56;97025.72;;;4.62
64458;BMP280;58438;51.200;7.252;2023-12-20T11:43:43;97024.22;;;4.61
64458;BMP280;58438;51.200;7.252;2023-12-20T11:46:31;97022.72;;;4.60
64458;BMP280;58438;51.200;7.252;2023-12-20T11:49:22;97013.75;;;4.63
64458;BMP280;58438;51.200;7.252;2023-12-20T11:52:11;97016.56;;;4.60
64458;BMP280;58438;51.200;7.252;2023-12-20T11:55:00;97014.47;;;4.55
64458;BMP280;58438;51.200;7.252;2023-12-20T11:57:47;97018.19;;;4.57
64458;BMP280;58438;51.200;7.252;2023-12-20T12:00:35;97016.91;;;4.62
64458;BMP280;58438;51.200;7.252;2023-12-20T12:03:22;97017.34;;;4.60
64458;BMP280;58438;51.200;7.252;2023-12-20T12:06:10;97006.56;;;4.60
64458;BMP280;58438;51.200;7.252;2023-12-20T12:08:59;97011.94;;;4.60
64458;BMP280;58438;51.200;7.252;2023-12-20T12:11:48;97007.44;;;4.57
64458;BMP280;58438;51.200;7.252;2023-12-20T12:14:36;97016.44;;;4.63
64458;BMP280;58438;51.200;7.252;2023-12-20T12:17:23;97013.56;;;4.67
64458;BMP280;58438;51.200;7.252;2023-12-20T12:20:11;97008.06;;;4.61
64458;BMP280;58438;51.200;7.252;2023-12-20T12:22:58;96990.97;;;4.64
64458;BMP280;58438;51.200;7.252;2023-12-20T12:25:46;96990.25;;;4.64
64458;BMP280;58438;51.200;7.252;2023-12-20T12:28:35;96994.44;;;4.65
64458;BMP280;58438;51.200;7.252;2023-12-20T12:31:23;96990.97;;;4.64
64458;BMP280;58438;51.200;7.252;2023-12-20T12:34:13;96983.22;;;4.66
64458;BMP280;58438;51.200;7.252;2023-12-20T12:37:03;96977.19;;;4.62
64458;BMP280;58438;51.200;7.252;2023-12-20T12:39:50;96979.47;;;4.64
64458;BMP280;58438;51.200;7.252;2023-12-20T12:42:40;96973.31;;;4.63
64458;BMP280;58438;51.200;7.252;2023-12-20T12:45:29;96981.84;;;4.62
64458;BMP280;58438;51.200;7.252;2023-12-20T12:48:17;96977.97;;;4.63
64458;BMP280;58438;51.200;7.252;2023-12-20T12:51:04;96980.94;;;4.65
64458;BMP280;58438;51.200;7.252;2023-12-20T12:53:53;96980.78;;;4.68
64458;BMP280;58438;51.200;7.252;2023-12-20T12:56:40;96976.59;;;4.67
64458;BMP280;58438;51.200;7.252;2023-12-20T12:59:27;96973.44;;;4.69
64458;BMP280;58438;51.200;7.252;2023-12-20T13:02:16;96959.81;;;4.72
64458;BMP280;58438;51.200;7.252;2023-12-20T13:05:03;96964.59;;;4.68
64458;BMP280;58438;51.200;7.252;2023-12-20T13:07:51;96966.41;;;4.71
64458;BMP280;58438;51.200;7.252;2023-12-20T13:10:38;96961.78;;;4.72
64458;BMP280;58438;51.200;7.252;2023-12-20T13:13:26;96954.88;;;4.71
64458;BMP280;58438;51.200;7.252;2023-12-20T13:16:13;96944.41;;;4.73
64458;BMP280;58438;51.200;7.252;2023-12-20T13:19:02;96942.00;;;4.75
64458;BMP280;58438;51.200;7.252;2023-12-20T13:21:49;96944.84;;;4.71
64458;BMP280;58438;51.200;7.252;2023-12-20T13:24:37;96949.22;;;4.78
64458;BMP280;58438;51.200;7.252;2023-12-20T13:27:25;96935.88;;;4.74
64458;BMP280;58438;51.200;7.252;2023-12-20T13:30:12;96923.59;;;4.73
64458;BMP280;58438;51.200;7.252;2023-12-20T13:33:00;96920.91;;;4.73
64458;BMP280;58438;51.200;7.252;2023-12-20T13:35:48;96939.78;;;4.73
64458;BMP280;58438;51.200;7.252;2023-12-20T13:38:35;96931.06;;;4.78
64458;BMP280;58438;51.200;7.252;2023-12-20T13:41:22;96904.88;;;4.79
64458;BMP280;58438;51.200;7.252;2023-12-20T13:44:09;96890.78;;;4.75
64458;BMP280;58438;51.200;7.252;2023-12-20T13:46:58;96913.41;;;4.77
64458;BMP280;58438;51.200;7.252;2023-12-20T13:49:45;96909.06;;;4.80
64458;BMP280;58438;51.200;7.252;2023-12-20T13:52:33;96911.75;;;4.80
64458;BMP280;58438;51.200;7.252;2023-12-20T13:55:24;96907.25;;;4.77
64458;BMP280;58438;51.200;7.252;2023-12-20T13:58:13;96921.03;;;4.79
64458;BMP280;58438;51.200;7.252;2023-12-20T14:01:00;96913.25;;;4.81
64458;BMP280;58438;51.200;7.252;2023-12-20T14:03:48;96910.13;;;4.82
64458;BMP280;58438;51.200;7.252;2023-12-20T14:06:36;96900.53;;;4.81
64458;BMP280;58438;51.200;7.252;2023-12-20T14:09:24;96909.94;;;4.86
64458;BMP280;58438;51.200;7.252;2023-12-20T14:12:12;96907.97;;;4.86
64458;BMP280;58438;51.200;7.252;2023-12-20T14:14:59;96896.00;;;4.87
64458;BMP280;58438;51.200;7.252;2023-12-20T14:17:46;96905.88;;;4.90
64458;BMP280;58438;51.200;7.252;2023-12-20T14:20:33;96900.50;;;4.90
64458;BMP280;58438;51.200;7.252;2023-12-20T14:23:20;96913.97;;;4.90
64458;BMP280;58438;51.200;7.252;2023-12-20T14:26:09;96905.88;;;4.90
64458;BMP280;58438;51.200;7.252;2023-12-20T14:29:00;96906.94;;;4.93
64458;BMP280;58438;51.200;7.252;2023-12-20T14:31:47;96907.38;;;4.91
64458;BMP280;58438;51.200;7.252;2023-12-20T14:34:35;96900.19;;;4.88
64458;BMP280;58438;51.200;7.252;2023-12-20T14:37:23;96898.38;;;4.94
64458;BMP280;58438;51.200;7.252;2023-12-20T14:40:11;96906.19;;;4.92
64458;BMP280;58438;51.200;7.252;2023-12-20T14:43:03;96907.97;;;4.95
64458;BMP280;58438;51.200;7.252;2023-12-20T14:45:50;96921.16;;;4.93
64458;BMP280;58438;51.200;7.252;2023-12-20T14:48:37;96930.75;;;4.94
64458;BMP280;58438;51.200;7.252;2023-12-20T14:51:24;96918.75;;;4.95
64458;BMP280;58438;51.200;7.252;2023-12-20T14:54:11;96923.72;;;4.97
64458;BMP280;58438;51.200;7.252;2023-12-20T14:56:58;96939.44;;;4.98
64458;BMP280;58438;51.200;7.252;2023-12-20T14:59:51;96936.56;;;5.02
64458;BMP280;58438;51.200;7.252;2023-12-20T15:02:39;96933.41;;;5.03
64458;BMP280;58438;51.200;7.252;2023-12-20T15:05:27;96913.78;;;5.03
64458;BMP280;58438;51.200;7.252;2023-12-20T15:08:14;96927.56;;;5.04
64458;BMP280;58438;51.200;7.252;2023-12-20T15:11:01;96916.78;;;5.04
64458;BMP280;58438;51.200;7.252;2023-12-20T15:13:49;96925.94;;;5.07
64458;BMP280;58438;51.200;7.252;2023-12-20T15:16:43;96929.84;;;5.06
64458;BMP280;58438;51.200;7.252;2023-12-20T15:19:30;96929.25;;;5.11
64458;BMP280;58438;51.200;7.252;2023-12-20T15:22:17;96936.13;;;5.12
64458;BMP280;58438;51.200;7.252;2023-12-20T15:25:05;96936.13;;;5.12
64458;BMP280;58438;51.200;7.252;2023-12-20T15:27:54;96912.59;;;5.12
64458;BMP280;58438;51.200;7.252;2023-12-20T15:30:41;96905.53;;;5.15
64458;BMP280;58438;51.200;7.252;2023-12-20T15:33:29;96921.72;;;5.15
64458;BMP280;58438;51.200;7.252;2023-12-20T15:36:16;96910.50;;;5.16
64458;BMP280;58438;51.200;7.252;2023-12-20T15:39:03;96912.69;;;5.18
64458;BMP280;58438;51.200;7.252;2023-12-20T15:41:50;96924.72;;;5.17
64458;BMP280;58438;51.200;7.252;2023-12-20T15:44:38;96918.09;;;5.18
64458;BMP280;58438;51.200;7.252;2023-12-20T15:47:25;96916.16;;;5.18
64458;BMP280;58438;51.200;7.252;2023-12-20T15:50:13;96915.72;;;5.20
64458;BMP280;58438;51.200;7.252;2023-12-20T15:53:01;96914.50;;;5.21
64458;BMP280;58438;51.200;7.252;2023-12-20T15:55:49;96916.00;;;5.22
64458;BMP280;58438;51.200;7.252;2023-12-20T15:58:37;96923.19;;;5.25
64458;BMP280;58438;51.200;7.252;2023-12-20T16:01:24;96939.38;;;5.25
64458;BMP280;58438;51.200;7.252;2023-12-20T16:04:11;96930.38;;;5.28
64458;BMP280;58438;51.200;7.252;2023-12-20T16:06:59;96911.19;;;5.26
64458;BMP280;58438;51.200;7.252;2023-12-20T16:09:47;96925.72;;;5.28
64458;BMP280;58438;51.200;7.252;2023-12-20T16:12:33;96911.19;;;5.26
64458;BMP280;58438;51.200;7.252;2023-12-20T16:15:21;96910.28;;;5.29
64458;BMP280;58438;51.200;7.252;2023-12-20T16:18:08;96914.66;;;5.26
64458;BMP280;58438;51.200;7.252;2023-12-20T16:20:57;96908.50;;;5.26
64458;BMP280;58438;51.200;7.252;2023-12-20T16:23:48;96894.13;;;5.29
64458;BMP280;58438;51.200;7.252;2023-12-20T16:26:35;96903.25;;;5.31